createdAt,value
2018-01-04T00:01:24.634Z,7.80
2018-01-04T00:03:52.115Z,7.70
2018-01-04T00:06:19.570Z,7.70
2018-01-04T00:08:47.049Z,7.60
2018-01-04T00:11:15.290Z,7.60
2018-01-04T00:13:42.742Z,7.60
2018-01-04T00:16:10.265Z,7.50
2018-01-04T00:18:37.720Z,7.40
2018-01-04T00:21:05.189Z,7.30
2018-01-04T00:23:32.650Z,7.30
2018-01-04T00:26:00.136Z,7.30
2018-01-04T00:28:27.586Z,7.20
2018-01-04T00:30:55.058Z,7.20
2018-01-04T00:33:22.527Z,7.30
2018-01-04T00:35:50.763Z,7.20
2018-01-04T00:38:18.239Z,7.20
2018-01-04T00:40:45.694Z,7.20
2018-01-04T00:43:13.151Z,7.20
2018-01-04T00:45:40.617Z,7.30
2018-01-04T00:48:08.093Z,7.40
2018-01-04T00:50:36.306Z,7.40
2018-01-04T00:53:03.782Z,7.40
2018-01-04T00:55:31.237Z,7.40
2018-01-04T00:57:58.717Z,7.40
2018-01-04T01:00:26.938Z,7.50
2018-01-04T01:02:54.413Z,7.40
2018-01-04T01:05:21.889Z,7.50
2018-01-04T01:07:50.871Z,7.40
2018-01-04T01:10:18.339Z,7.50
2018-01-04T01:12:45.794Z,7.40
2018-01-04T01:15:13.262Z,7.40
2018-01-04T01:17:40.715Z,7.40
2018-01-04T01:20:08.174Z,7.30
2018-01-04T01:22:35.646Z,7.40
2018-01-04T01:25:03.866Z,7.40
2018-01-04T01:27:31.342Z,7.40
2018-01-04T01:29:58.838Z,7.40
2018-01-04T01:32:27.062Z,7.40
2018-01-04T01:34:54.535Z,7.40
2018-01-04T01:37:22.006Z,7.40
2018-01-04T01:39:49.463Z,7.40
2018-01-04T01:42:17.701Z,7.40
2018-01-04T01:44:45.162Z,7.40
2018-01-04T01:47:12.634Z,7.40
2018-01-04T01:49:40.086Z,7.40
2018-01-04T01:52:07.560Z,7.40
2018-01-04T01:54:35.015Z,7.50
2018-01-04T01:57:03.282Z,7.40
2018-01-04T01:59:30.738Z,7.40
2018-01-04T02:01:58.986Z,7.50
2018-01-04T02:04:26.431Z,7.40
2018-01-04T02:06:53.931Z,7.50
2018-01-04T02:09:21.402Z,7.40
2018-01-04T02:11:49.626Z,7.40
2018-01-04T02:14:17.094Z,7.40
2018-01-04T02:16:44.565Z,7.30
2018-01-04T02:19:24.085Z,7.30
2018-01-04T02:22:03.521Z,7.30
2018-01-04T02:24:42.997Z,7.20
2018-01-04T02:27:22.442Z,7.10
2018-01-04T02:30:02.646Z,7.10
2018-01-04T02:32:41.978Z,7.00
2018-01-04T02:35:29.177Z,7.00
2018-01-04T02:38:08.746Z,6.90
2018-01-04T02:40:48.137Z,6.90
2018-01-04T02:43:28.417Z,6.90
2018-01-04T02:46:01.918Z,6.90
2018-01-04T02:48:29.397Z,6.90
2018-01-04T02:50:56.871Z,6.90
2018-01-04T02:53:24.333Z,6.90
2018-01-04T02:55:51.793Z,7.00
2018-01-04T02:58:19.250Z,6.90
2018-01-04T03:00:47.493Z,6.80
2018-01-04T03:03:14.950Z,6.80
2018-01-04T03:05:42.427Z,6.70
2018-01-04T03:08:09.878Z,6.70
2018-01-04T03:10:37.374Z,6.80
2018-01-04T03:13:05.598Z,6.70
2018-01-04T03:15:33.083Z,6.70
2018-01-04T03:18:02.062Z,6.70
2018-01-04T03:20:29.535Z,6.70
2018-01-04T03:23:02.778Z,6.80
2018-01-04T03:25:35.793Z,6.80
2018-01-04T03:28:09.002Z,6.80
2018-01-04T03:30:42.251Z,6.90
2018-01-04T03:33:15.570Z,6.90
2018-01-04T03:35:48.782Z,6.80
2018-01-04T03:41:25.615Z,6.80
2018-01-04T03:43:58.838Z,6.80
2018-01-04T03:46:32.110Z,6.80
2018-01-04T03:49:05.338Z,6.80
2018-01-04T03:51:38.590Z,6.80
2018-01-04T03:54:11.904Z,6.90
2018-01-04T03:56:45.080Z,6.90
2018-01-04T03:59:18.291Z,6.90
2018-01-04T04:01:51.558Z,7.00
2018-01-04T04:04:24.793Z,7.00
2018-01-04T04:06:58.063Z,6.90
2018-01-04T04:09:25.534Z,6.90
2018-01-04T04:11:53.002Z,7.00
2018-01-04T04:14:21.231Z,7.00
2018-01-04T04:16:48.692Z,6.90
2018-01-04T04:19:16.165Z,7.00
2018-01-04T04:21:43.738Z,7.00
2018-01-04T04:24:11.196Z,7.00
2018-01-04T04:26:40.204Z,6.90
2018-01-04T04:29:07.650Z,6.90
2018-01-04T04:31:35.110Z,6.90
2018-01-04T04:34:02.578Z,6.90
2018-01-04T04:36:30.798Z,6.80
2018-01-04T04:38:58.282Z,6.80
2018-01-04T04:41:25.738Z,6.80
2018-01-04T04:43:53.221Z,6.80
2018-01-04T04:46:21.438Z,6.80
2018-01-04T04:48:49.746Z,6.70
2018-01-04T04:51:17.215Z,6.80
2018-01-04T04:53:45.450Z,6.90
2018-01-04T04:56:12.938Z,6.90
2018-01-04T04:58:40.415Z,6.90
2018-01-04T05:01:08.642Z,6.90
2018-01-04T05:03:36.114Z,6.80
2018-01-04T05:06:03.586Z,6.90
2018-01-04T05:08:31.046Z,7.00
2018-01-04T05:10:58.518Z,6.90
2018-01-04T05:13:26.746Z,6.90
2018-01-04T05:15:54.193Z,6.90
2018-01-04T05:18:21.670Z,6.80
2018-01-04T05:20:49.135Z,6.90
2018-01-04T05:23:16.614Z,6.90
2018-01-04T05:25:44.062Z,6.90
2018-01-04T05:28:11.538Z,6.90
2018-01-04T05:30:39.770Z,7.00
2018-01-04T05:33:07.242Z,7.00
2018-01-04T05:35:34.694Z,6.90
2018-01-04T05:38:02.176Z,7.00
2018-01-04T05:40:30.410Z,7.00
2018-01-04T05:42:57.881Z,7.00
2018-01-04T05:45:25.354Z,7.00
2018-01-04T05:47:52.802Z,7.00
2018-01-04T05:50:21.083Z,7.00
2018-01-04T05:52:48.534Z,7.00
2018-01-04T05:55:16.010Z,7.00
2018-01-04T05:57:44.243Z,6.90
2018-01-04T06:00:11.708Z,6.90
2018-01-04T06:02:39.190Z,6.90
2018-01-04T06:05:07.410Z,6.90
2018-01-04T06:07:34.887Z,6.90
2018-01-04T06:10:02.350Z,6.90
2018-01-04T06:12:29.819Z,6.90
2018-01-04T06:14:57.278Z,6.90
2018-01-04T06:17:24.746Z,6.90
2018-01-04T06:19:52.202Z,7.00
2018-01-04T06:22:19.682Z,7.00
2018-01-04T06:24:47.142Z,7.00
2018-01-04T06:27:14.639Z,7.00
2018-01-04T06:29:42.070Z,7.10
2018-01-04T06:32:09.554Z,7.10
2018-01-04T06:34:37.011Z,7.00
2018-01-04T06:37:04.467Z,7.00
2018-01-04T06:39:32.002Z,7.10
2018-01-04T06:41:59.478Z,7.10
2018-01-04T06:44:26.949Z,7.10
2018-01-04T06:46:54.422Z,7.00
2018-01-04T06:49:21.886Z,7.00
2018-01-04T06:51:50.113Z,7.00
2018-01-04T06:54:17.578Z,7.00
2018-01-04T06:56:45.034Z,7.00
2018-01-04T06:59:12.501Z,7.00
2018-01-04T07:01:40.222Z,7.00
2018-01-04T07:04:07.688Z,7.00
2018-01-04T07:06:35.166Z,7.00
2018-01-04T07:09:02.623Z,7.10
2018-01-04T07:11:30.081Z,7.10
2018-01-04T07:13:57.554Z,7.00
2018-01-04T07:16:25.013Z,7.00
2018-01-04T07:18:53.309Z,7.00
2018-01-04T07:21:20.846Z,7.00
2018-01-04T07:23:48.313Z,7.00
2018-01-04T07:26:15.790Z,7.00
2018-01-04T07:28:43.255Z,7.00
2018-01-04T07:31:10.733Z,7.00
2018-01-04T07:33:38.194Z,7.00
2018-01-04T07:36:05.678Z,7.00
2018-01-04T07:38:33.136Z,6.90
2018-01-04T07:41:00.608Z,6.90
2018-01-04T07:43:29.579Z,6.90
2018-01-04T07:45:57.030Z,6.90
2018-01-04T07:48:24.506Z,6.90
2018-01-04T07:50:51.972Z,6.90
2018-01-04T07:53:20.970Z,6.90
2018-01-04T07:55:49.214Z,7.00
2018-01-04T07:58:16.697Z,7.00
2018-01-04T08:00:44.921Z,7.00
2018-01-04T08:03:12.374Z,7.00
2018-01-04T08:05:39.850Z,7.10
2018-01-04T08:08:07.326Z,7.10
2018-01-04T08:10:34.806Z,7.00
2018-01-04T08:13:03.038Z,7.00
2018-01-04T08:15:30.511Z,7.00
2018-01-04T08:17:57.977Z,7.00
2018-01-04T08:20:25.453Z,7.10
2018-01-04T08:22:53.692Z,7.10
2018-01-04T08:25:21.154Z,7.10
2018-01-04T08:27:48.610Z,7.10
2018-01-04T08:30:16.093Z,7.20
2018-01-04T08:32:44.335Z,7.20
2018-01-04T08:35:11.794Z,7.20
2018-01-04T08:37:39.245Z,7.20
2018-01-04T08:40:06.735Z,7.20
2018-01-04T08:42:34.954Z,7.30
2018-01-04T08:45:02.427Z,7.30
2018-01-04T08:47:29.887Z,7.40
2018-01-04T08:49:57.339Z,7.40
2018-01-04T08:52:24.810Z,7.40
2018-01-04T08:54:52.270Z,7.40
2018-01-04T08:57:21.251Z,7.40
2018-01-04T08:59:48.705Z,7.40
2018-01-04T09:02:16.173Z,7.40
2018-01-04T09:04:43.621Z,7.40
2018-01-04T09:07:11.107Z,7.50
2018-01-04T09:09:39.351Z,7.50
2018-01-04T09:12:06.827Z,7.40
2018-01-04T09:14:35.786Z,7.40
2018-01-04T09:17:03.254Z,7.50
2018-01-04T09:19:30.710Z,7.50
2018-01-04T09:21:58.180Z,7.50
2018-01-04T09:24:25.648Z,7.50
2018-01-04T09:26:54.619Z,7.50
2018-01-04T09:29:22.086Z,7.50
2018-01-04T09:31:49.543Z,7.60
2018-01-04T09:34:17.011Z,7.60
2018-01-04T09:36:44.465Z,7.50
2018-01-04T09:39:12.709Z,7.60
2018-01-04T09:41:40.173Z,7.60
2018-01-04T09:44:07.622Z,7.60
2018-01-04T09:46:35.099Z,7.60
2018-01-04T09:49:02.578Z,7.60
2018-01-04T09:51:30.831Z,7.60
2018-01-04T09:53:58.289Z,7.60
2018-01-04T09:56:25.849Z,7.60
2018-01-04T09:58:53.311Z,7.50
2018-01-04T10:01:20.783Z,7.40
2018-01-04T10:03:49.006Z,7.40
2018-01-04T10:06:16.478Z,7.40
2018-01-04T10:08:43.942Z,7.40
2018-01-04T10:11:11.431Z,7.40
2018-01-04T10:13:39.734Z,7.30
2018-01-04T10:16:07.194Z,7.30
2018-01-04T10:18:34.712Z,7.30
2018-01-04T10:21:02.978Z,7.40
2018-01-04T10:23:30.427Z,7.40
2018-01-04T10:25:57.887Z,7.50
2018-01-04T10:28:25.357Z,7.50
2018-01-04T10:30:53.575Z,7.60
2018-01-04T10:33:21.054Z,7.50
2018-01-04T10:35:49.548Z,7.60
2018-01-04T10:38:17.023Z,7.60
2018-01-04T10:40:45.256Z,7.70
2018-01-04T10:43:12.718Z,7.60
2018-01-04T10:45:40.179Z,7.70
2018-01-04T10:48:07.638Z,7.70
2018-01-04T10:50:35.113Z,7.70
2018-01-04T10:53:02.566Z,7.70
2018-01-04T10:55:30.821Z,7.70
2018-01-04T10:57:58.854Z,7.70
2018-01-04T11:00:26.330Z,7.80
2018-01-04T11:02:53.806Z,7.80
2018-01-04T11:05:21.260Z,7.80
2018-01-04T11:07:48.725Z,7.80
2018-01-04T11:10:16.217Z,7.80
2018-01-04T11:12:44.434Z,7.80
2018-01-04T11:15:11.894Z,7.80
2018-01-04T11:17:39.345Z,7.80
2018-01-04T11:20:06.815Z,7.80
2018-01-04T11:22:34.290Z,7.80
2018-01-04T11:25:01.764Z,7.80
2018-01-04T11:27:30.006Z,7.80
2018-01-04T11:29:57.478Z,7.80
2018-01-04T11:32:24.950Z,7.80
2018-01-04T11:34:53.175Z,7.80
2018-01-04T11:37:20.654Z,7.80
2018-01-04T11:39:48.102Z,7.80
2018-01-04T11:42:15.579Z,7.70
2018-01-04T11:44:43.810Z,7.70
2018-01-04T11:47:11.311Z,7.70
2018-01-04T11:49:38.785Z,7.70
2018-01-04T11:52:07.018Z,7.80
2018-01-04T11:54:34.486Z,7.80
2018-01-04T11:57:02.706Z,7.80
2018-01-04T11:59:30.180Z,7.80
2018-01-04T12:01:57.634Z,7.80
2018-01-04T12:04:25.132Z,7.80
2018-01-04T12:06:53.384Z,7.90
2018-01-04T12:09:20.851Z,7.90
2018-01-04T12:11:48.302Z,7.90
2018-01-04T12:14:15.780Z,7.90
2018-01-04T12:16:43.226Z,7.90
2018-01-04T12:19:10.682Z,7.90
2018-01-04T12:21:38.156Z,8.00
2018-01-04T12:24:06.370Z,8.00
2018-01-04T12:26:33.842Z,8.00
2018-01-04T12:29:01.310Z,8.00
2018-01-04T12:31:28.791Z,8.00
2018-01-04T12:33:56.240Z,8.00
2018-01-04T12:36:23.693Z,7.90
2018-01-04T12:38:52.007Z,7.90
2018-01-04T12:41:20.221Z,7.90
2018-01-04T12:43:47.698Z,7.90
2018-01-04T12:46:15.170Z,7.80
2018-01-04T12:48:44.139Z,7.80
2018-01-04T12:51:11.593Z,7.80
2018-01-04T12:53:39.082Z,7.80
2018-01-04T12:56:06.534Z,7.80
2018-01-04T12:58:34.002Z,7.80
2018-01-04T13:01:02.250Z,7.70
2018-01-04T13:03:29.702Z,7.70
2018-01-04T13:05:57.182Z,7.70
2018-01-04T13:08:25.401Z,7.70
2018-01-04T13:10:52.885Z,7.70
2018-01-04T13:13:20.370Z,7.70
2018-01-04T13:15:48.590Z,7.70
2018-01-04T13:18:16.074Z,7.70
2018-01-04T13:20:43.541Z,7.60
2018-01-04T13:23:11.006Z,7.60
2018-01-04T13:25:38.459Z,7.60
2018-01-04T13:28:05.927Z,7.60
2018-01-04T13:30:33.398Z,7.60
2018-01-04T13:33:01.622Z,7.60
2018-01-04T13:35:29.085Z,7.60
2018-01-04T13:37:56.530Z,7.60
2018-01-04T13:40:24.007Z,7.60
2018-01-04T13:42:51.478Z,7.70
2018-01-04T13:45:18.944Z,7.70
2018-01-04T13:47:46.401Z,7.70
2018-01-04T13:50:14.633Z,7.70
2018-01-04T13:52:42.101Z,7.70
2018-01-04T13:55:09.586Z,7.70
2018-01-04T13:57:37.054Z,7.70
2018-01-04T14:00:05.270Z,7.80
2018-01-04T14:02:32.738Z,7.80
2018-01-04T14:05:00.206Z,7.80
2018-01-04T14:07:27.678Z,7.80
2018-01-04T14:09:55.158Z,7.80
2018-01-04T14:12:23.380Z,7.90
2018-01-04T14:14:50.851Z,7.90
2018-01-04T14:17:18.308Z,7.90
2018-01-04T14:19:45.799Z,8.00
2018-01-04T14:22:14.030Z,8.10
2018-01-04T14:24:42.059Z,8.10
2018-01-04T14:27:09.527Z,8.20
2018-01-04T14:29:36.994Z,8.20
2018-01-04T14:32:04.463Z,8.30
2018-01-04T14:34:31.929Z,8.40
2018-01-04T14:36:59.410Z,8.50
2018-01-04T14:39:26.919Z,8.70
2018-01-04T14:41:54.394Z,8.80
2018-01-04T14:44:21.863Z,8.80
2018-01-04T14:46:49.322Z,8.90
2018-01-04T14:49:16.788Z,9.10
2018-01-04T14:51:44.246Z,9.30
2018-01-04T14:54:11.724Z,9.40
2018-01-04T14:56:39.968Z,9.60
2018-01-04T14:59:07.455Z,9.60
2018-01-04T15:01:35.674Z,9.60
2018-01-04T15:04:03.149Z,9.60
2018-01-04T15:06:30.642Z,9.80
2018-01-04T15:08:58.865Z,10.00
2018-01-04T15:11:26.403Z,10.00
2018-01-04T15:13:53.847Z,10.20
2018-01-04T15:16:21.334Z,10.30
2018-01-04T15:18:48.793Z,10.30
2018-01-04T15:21:16.274Z,10.40
2018-01-04T15:23:43.731Z,10.50
2018-01-04T15:26:11.982Z,10.50
2018-01-04T15:28:39.439Z,10.50
2018-01-04T15:31:06.918Z,10.60
2018-01-04T15:33:34.386Z,10.60
2018-01-04T15:36:01.870Z,10.60
2018-01-04T15:38:29.343Z,10.70
2018-01-04T15:40:56.824Z,10.70
2018-01-04T15:43:24.296Z,10.70
2018-01-04T15:45:51.773Z,10.90
2018-01-04T15:48:19.222Z,10.90
2018-01-04T15:50:47.463Z,10.80
2018-01-04T15:53:14.930Z,10.80
2018-01-04T15:55:42.406Z,10.80
2018-01-04T15:58:09.868Z,10.70
2018-01-04T16:00:37.350Z,10.70
2018-01-04T16:03:04.815Z,10.70
2018-01-04T16:05:32.339Z,10.70
2018-01-04T16:07:59.822Z,10.80
2018-01-04T16:10:27.284Z,10.80
2018-01-04T16:12:54.741Z,10.90
2018-01-04T16:15:22.227Z,10.90
2018-01-04T16:17:49.709Z,11.10
2018-01-04T16:20:17.177Z,11.10
2018-01-04T16:22:44.643Z,11.00
2018-01-04T16:25:12.871Z,11.10
2018-01-04T16:27:42.052Z,11.10
2018-01-04T16:30:09.556Z,11.10
2018-01-04T16:32:37.002Z,11.10
2018-01-04T16:35:04.485Z,11.00
2018-01-04T16:37:32.729Z,10.80
2018-01-04T16:40:00.193Z,10.80
2018-01-04T16:42:28.790Z,11.10
2018-01-04T16:44:57.021Z,11.00
2018-01-04T16:47:24.505Z,10.90
2018-01-04T16:49:51.983Z,10.80
2018-01-04T16:52:22.309Z,10.90
2018-01-04T16:54:50.545Z,11.00
2018-01-04T16:57:18.027Z,10.90
2018-01-04T16:59:45.482Z,11.00
2018-01-04T17:02:12.954Z,10.90
2018-01-04T17:04:41.226Z,11.00
2018-01-04T17:07:08.679Z,11.00
2018-01-04T17:09:36.134Z,11.00
2018-01-04T17:12:05.067Z,11.20
2018-01-04T17:14:32.522Z,11.10
2018-01-04T17:16:59.995Z,11.10
2018-01-04T17:19:27.475Z,11.00
2018-01-04T17:21:54.925Z,11.00
2018-01-04T17:24:22.410Z,11.00
2018-01-04T17:26:49.878Z,10.90
2018-01-04T17:29:18.122Z,11.10
2018-01-04T17:31:45.578Z,11.10
2018-01-04T17:34:13.076Z,11.00
2018-01-04T17:36:41.303Z,11.10
2018-01-04T17:39:08.775Z,11.10
2018-01-04T17:41:37.019Z,11.20
2018-01-04T17:44:04.486Z,11.20
2018-01-04T17:46:31.964Z,11.20
2018-01-04T17:48:59.433Z,11.10
2018-01-04T17:51:26.898Z,11.20
2018-01-04T17:53:55.126Z,11.10
2018-01-04T17:56:22.594Z,11.10
2018-01-04T17:58:50.086Z,11.00
2018-01-04T18:01:18.314Z,11.00
2018-01-04T18:03:45.798Z,11.00
2018-01-04T18:06:13.259Z,11.10
2018-01-04T18:08:40.740Z,11.10
2018-01-04T18:11:08.205Z,11.00
2018-01-04T18:13:35.678Z,11.00
2018-01-04T18:16:03.150Z,10.90
2018-01-04T18:18:30.642Z,10.90
2018-01-04T18:20:59.014Z,10.90
2018-01-04T18:23:26.524Z,10.90
2018-01-04T18:25:53.992Z,10.80
2018-01-04T18:28:21.463Z,10.90
2018-01-04T18:30:49.762Z,10.90
2018-01-04T18:33:17.244Z,10.90
2018-01-04T18:35:45.491Z,10.90
2018-01-04T18:38:13.803Z,10.90
2018-01-04T18:40:42.913Z,11.00
2018-01-04T18:43:10.366Z,11.00
2018-01-04T18:45:37.844Z,10.90
2018-01-04T18:48:05.308Z,10.80
2018-01-04T18:50:32.798Z,10.80
2018-01-04T18:53:01.038Z,10.80
2018-01-04T18:55:29.359Z,10.80
2018-01-04T18:57:58.893Z,10.90
2018-01-04T19:00:30.751Z,10.90
2018-01-04T19:02:58.227Z,10.90
2018-01-04T19:05:25.688Z,10.80
2018-01-04T19:07:53.153Z,10.80
2018-01-04T19:10:21.238Z,10.80
2018-01-04T19:12:48.714Z,10.70
2018-01-04T19:15:16.973Z,10.60
2018-01-04T19:17:44.437Z,10.60
2018-01-04T19:20:11.942Z,10.60
2018-01-04T19:22:39.411Z,10.50
2018-01-04T19:25:06.890Z,10.50
2018-01-04T19:27:34.357Z,10.50
2018-01-04T19:30:01.818Z,10.40
2018-01-04T19:32:29.304Z,10.40
2018-01-04T19:34:57.542Z,10.40
2018-01-04T19:37:25.024Z,10.40
2018-01-04T19:39:53.258Z,10.40
2018-01-04T19:42:20.727Z,10.40
2018-01-04T19:44:48.206Z,10.40
2018-01-04T19:47:16.438Z,10.40
2018-01-04T19:49:44.793Z,10.40
2018-01-04T19:52:12.249Z,10.40
2018-01-04T19:54:39.731Z,10.30
2018-01-04T19:57:07.194Z,10.30
2018-01-04T19:59:34.676Z,10.20
2018-01-04T20:02:02.156Z,10.20
2018-01-04T20:04:30.388Z,10.20
2018-01-04T20:06:57.861Z,10.20
2018-01-04T20:09:25.338Z,10.20
2018-01-04T20:11:53.586Z,10.20
2018-01-04T20:14:21.059Z,10.20
2018-01-04T20:16:51.073Z,10.10
2018-01-04T20:19:18.542Z,10.10
2018-01-04T20:21:46.806Z,10.00
2018-01-04T20:24:14.293Z,10.00
2018-01-04T20:26:41.762Z,10.10
2018-01-04T20:29:09.244Z,10.10
2018-01-04T20:31:36.729Z,10.00
2018-01-04T20:34:04.227Z,10.00
2018-01-04T20:36:31.682Z,9.90
2018-01-04T20:38:59.242Z,9.90
2018-01-04T20:41:26.874Z,9.80
2018-01-04T20:43:54.496Z,9.80
2018-01-04T20:46:22.121Z,9.80
2018-01-04T20:48:49.806Z,9.80
2018-01-04T20:51:17.303Z,9.80
2018-01-04T20:53:44.788Z,9.80
2018-01-04T20:56:12.262Z,9.80
2018-01-04T20:58:39.752Z,9.80
2018-01-04T21:01:07.211Z,9.80
2018-01-04T21:03:34.708Z,9.70
2018-01-04T21:06:02.952Z,9.70
2018-01-04T21:08:30.410Z,9.70
2018-01-04T21:10:57.881Z,9.50
2018-01-04T21:13:26.193Z,9.40
2018-01-04T21:15:53.668Z,9.40
2018-01-04T21:18:22.012Z,9.30
2018-01-04T21:20:49.493Z,9.30
2018-01-04T21:23:16.978Z,9.20
2018-01-04T21:25:44.433Z,9.10
2018-01-04T21:28:11.923Z,9.20
2018-01-04T21:30:40.155Z,9.10
2018-01-04T21:33:08.381Z,9.10
2018-01-04T21:35:36.622Z,9.10
2018-01-04T21:38:05.606Z,9.10
2018-01-04T21:40:33.058Z,9.10
2018-01-04T21:43:00.548Z,9.00
2018-01-04T21:45:28.835Z,9.00
2018-01-04T21:47:56.320Z,9.00
2018-01-04T21:50:23.785Z,9.00
2018-01-04T21:52:51.244Z,8.90
2018-01-04T21:55:18.705Z,8.70
2018-01-04T21:57:46.178Z,8.80
2018-01-04T22:00:13.686Z,8.70
2018-01-04T22:02:41.178Z,8.70
2018-01-04T22:05:08.659Z,8.80
2018-01-04T22:07:36.137Z,8.80
2018-01-04T22:10:04.367Z,8.60
2018-01-04T22:12:31.842Z,8.60
2018-01-04T22:14:59.318Z,8.70
2018-01-04T22:17:27.553Z,8.60
2018-01-04T22:19:55.045Z,8.60
2018-01-04T22:22:22.509Z,8.60
2018-01-04T22:24:50.742Z,8.50
2018-01-04T22:27:18.210Z,8.50
2018-01-04T22:29:45.678Z,8.60
2018-01-04T22:32:13.202Z,8.50
2018-01-04T22:34:41.410Z,8.40
2018-01-04T22:37:08.874Z,8.40
2018-01-04T22:39:37.119Z,8.40
2018-01-04T22:42:04.603Z,8.40
2018-01-04T22:44:32.091Z,8.40
2018-01-04T22:46:59.570Z,8.40
2018-01-04T22:49:27.022Z,8.40
2018-01-04T22:51:54.518Z,8.30
2018-01-04T22:54:21.974Z,8.40
2018-01-04T22:56:49.466Z,8.40
2018-01-04T22:59:17.699Z,8.30
2018-01-04T23:01:45.182Z,8.20
2018-01-04T23:04:13.402Z,8.00
2018-01-04T23:06:40.853Z,8.00
2018-01-04T23:09:08.329Z,8.10
2018-01-04T23:11:35.814Z,8.10
2018-01-04T23:14:03.274Z,8.10
2018-01-04T23:16:30.734Z,8.00
2018-01-04T23:18:58.988Z,8.00
2018-01-04T23:21:26.462Z,7.90
2018-01-04T23:23:54.679Z,8.00
2018-01-04T23:26:22.157Z,7.90
2018-01-04T23:28:49.636Z,8.00
2018-01-04T23:31:17.126Z,7.90
2018-01-04T23:33:45.473Z,7.90
2018-01-04T23:36:14.461Z,7.80
2018-01-04T23:38:41.922Z,7.80
2018-01-04T23:41:09.375Z,7.80
2018-01-04T23:43:36.843Z,7.80
2018-01-04T23:46:04.326Z,7.80
2018-01-04T23:48:31.778Z,7.80
2018-01-04T23:51:00.042Z,7.80
2018-01-04T23:53:28.280Z,7.80
2018-01-04T23:55:55.748Z,7.80
2018-01-04T23:58:23.222Z,7.90
